createdAt,value
2019-05-26T00:00:31.896Z,10.84
2019-05-26T00:03:03.242Z,10.78
2019-05-26T00:05:34.349Z,10.76
2019-05-26T00:08:05.579Z,10.74
2019-05-26T00:10:36.835Z,10.70
2019-05-26T00:13:08.071Z,10.67
2019-05-26T00:15:39.218Z,10.61
2019-05-26T00:18:10.387Z,10.57
2019-05-26T00:20:41.641Z,10.56
2019-05-26T00:23:12.917Z,10.55
2019-05-26T00:25:44.219Z,10.54
2019-05-26T00:28:15.460Z,10.51
2019-05-26T00:30:46.608Z,10.46
2019-05-26T00:33:17.855Z,10.47
2019-05-26T00:35:49.092Z,10.47
2019-05-26T00:38:20.265Z,10.45
2019-05-26T00:40:51.522Z,10.42
2019-05-26T00:43:22.815Z,10.40
2019-05-26T00:45:54.049Z,10.36
2019-05-26T00:48:25.321Z,10.35
2019-05-26T00:50:56.664Z,10.32
2019-05-26T00:53:27.862Z,10.35
2019-05-26T00:55:59.099Z,10.37
2019-05-26T00:58:30.346Z,10.37
2019-05-26T01:01:01.595Z,10.39
2019-05-26T01:03:32.849Z,10.40
2019-05-26T01:06:04.126Z,10.38
2019-05-26T01:08:35.330Z,10.42
2019-05-26T01:11:06.649Z,10.46
2019-05-26T01:13:37.789Z,10.56
2019-05-26T01:16:08.951Z,10.49
2019-05-26T01:18:40.187Z,10.45
2019-05-26T01:21:11.407Z,10.41
2019-05-26T01:23:43.075Z,10.39
2019-05-26T01:26:14.226Z,10.37
2019-05-26T01:28:45.519Z,10.32
2019-05-26T01:31:16.811Z,10.29
2019-05-26T01:33:48.042Z,10.25
2019-05-26T01:36:19.782Z,10.26
2019-05-26T01:38:52.458Z,10.29
2019-05-26T01:41:23.784Z,10.26
2019-05-26T01:43:55.007Z,10.18
2019-05-26T01:46:26.151Z,10.14
2019-05-26T01:48:57.278Z,10.09
2019-05-26T01:51:28.508Z,10.06
2019-05-26T01:53:59.742Z,10.06
2019-05-26T01:56:30.979Z,10.03
2019-05-26T01:59:02.244Z,10.03
2019-05-26T02:01:33.472Z,10.02
2019-05-26T02:04:04.676Z,10.00
2019-05-26T02:06:35.907Z,9.98
2019-05-26T02:09:09.367Z,9.99
2019-05-26T02:11:40.571Z,9.95
2019-05-26T02:14:14.471Z,9.91
2019-05-26T02:16:44.764Z,9.82
2019-05-26T02:19:15.970Z,9.79
2019-05-26T02:21:47.385Z,9.78
2019-05-26T02:24:18.636Z,9.85
2019-05-26T02:26:49.897Z,9.87
2019-05-26T02:29:21.223Z,9.83
2019-05-26T02:31:52.480Z,9.80
2019-05-26T02:34:23.742Z,9.79
2019-05-26T02:36:55.043Z,9.78
2019-05-26T02:39:26.304Z,9.83
2019-05-26T02:41:57.553Z,9.83
2019-05-26T02:44:28.792Z,9.82
2019-05-26T02:47:00.023Z,9.80
2019-05-26T02:49:31.372Z,9.76
2019-05-26T02:52:02.675Z,9.78
2019-05-26T02:54:33.873Z,9.76
2019-05-26T02:57:05.254Z,9.71
2019-05-26T02:59:36.516Z,9.72
2019-05-26T03:02:07.977Z,9.75
2019-05-26T03:04:40.689Z,9.72
2019-05-26T03:07:14.184Z,9.72
2019-05-26T03:09:49.228Z,9.73
2019-05-26T03:12:24.258Z,9.75
2019-05-26T03:14:57.655Z,9.95
2019-05-26T03:17:35.313Z,9.89
2019-05-26T03:20:07.621Z,9.90
2019-05-26T03:22:44.201Z,9.97
2019-05-26T03:25:16.100Z,9.96
2019-05-26T03:27:47.450Z,9.96
2019-05-26T03:30:18.812Z,9.91
2019-05-26T03:32:52.807Z,9.90
2019-05-26T03:35:23.729Z,9.88
2019-05-26T03:37:54.934Z,9.88
2019-05-26T03:40:26.070Z,9.97
2019-05-26T03:42:57.290Z,9.98
2019-05-26T03:46:06.190Z,9.99
2019-05-26T03:48:37.449Z,10.02
2019-05-26T03:51:08.732Z,10.13
2019-05-26T03:53:39.977Z,10.29
2019-05-26T03:56:11.373Z,10.26
2019-05-26T03:58:42.639Z,10.42
2019-05-26T04:01:14.091Z,10.41
2019-05-26T04:03:45.281Z,10.44
2019-05-26T04:06:16.519Z,10.54
2019-05-26T04:08:47.790Z,10.64
2019-05-26T04:11:19.006Z,10.79
2019-05-26T04:13:50.307Z,11.04
2019-05-26T04:16:21.495Z,11.12
2019-05-26T04:18:52.770Z,11.22
2019-05-26T04:21:23.885Z,11.36
2019-05-26T04:23:55.186Z,11.56
2019-05-26T04:26:26.440Z,11.61
2019-05-26T04:28:57.668Z,11.65
2019-05-26T04:31:28.949Z,11.70
2019-05-26T04:34:00.168Z,11.72
2019-05-26T04:36:31.419Z,11.92
2019-05-26T04:39:02.644Z,12.08
2019-05-26T04:41:33.912Z,12.09
2019-05-26T04:44:05.308Z,12.29
2019-05-26T04:46:36.559Z,12.40
2019-05-26T04:49:07.811Z,12.62
2019-05-26T04:51:39.055Z,12.79
2019-05-26T04:54:10.318Z,13.04
2019-05-26T04:56:41.604Z,13.13
2019-05-26T04:59:12.858Z,13.41
2019-05-26T05:01:44.104Z,13.50
2019-05-26T05:04:15.396Z,13.71
2019-05-26T05:06:46.668Z,13.73
2019-05-26T05:09:17.895Z,14.05
2019-05-26T05:11:49.089Z,14.31
2019-05-26T05:14:20.287Z,14.37
2019-05-26T05:16:51.622Z,14.50
2019-05-26T05:19:22.822Z,14.43
2019-05-26T05:21:54.043Z,14.51
2019-05-26T05:24:25.424Z,14.43
2019-05-26T05:26:56.681Z,14.45
2019-05-26T05:29:27.923Z,14.52
2019-05-26T05:31:59.190Z,14.63
2019-05-26T05:34:30.504Z,14.77
2019-05-26T05:37:01.750Z,14.78
2019-05-26T05:39:33.027Z,14.83
2019-05-26T05:42:04.663Z,14.85
2019-05-26T05:44:35.989Z,14.74
2019-05-26T05:47:07.240Z,14.94
2019-05-26T05:49:38.472Z,14.94
2019-05-26T05:52:09.786Z,15.01
2019-05-26T05:54:41.104Z,15.04
2019-05-26T05:57:12.321Z,15.03
2019-05-26T05:59:43.646Z,15.29
2019-05-26T06:02:14.848Z,15.68
2019-05-26T06:04:46.022Z,16.21
2019-05-26T06:07:17.231Z,16.87
2019-05-26T06:09:48.543Z,17.24
2019-05-26T06:12:20.029Z,17.61
2019-05-26T06:14:51.308Z,17.99
2019-05-26T06:17:22.573Z,18.63
2019-05-26T06:19:54.404Z,19.35
2019-05-26T06:22:25.702Z,19.77
2019-05-26T06:24:56.992Z,20.09
2019-05-26T06:27:28.307Z,20.27
2019-05-26T06:30:00.274Z,20.45
2019-05-26T06:32:31.455Z,20.28
2019-05-26T06:35:04.083Z,20.79
2019-05-26T06:37:35.380Z,21.24
2019-05-26T06:40:07.529Z,21.59
2019-05-26T06:42:40.726Z,22.57
2019-05-26T06:45:12.765Z,22.83
2019-05-26T06:47:52.999Z,23.33
2019-05-26T06:50:24.265Z,22.39
2019-05-26T06:52:55.457Z,22.11
2019-05-26T06:55:26.802Z,21.85
2019-05-26T06:57:58.224Z,21.68
2019-05-26T07:00:29.462Z,22.10
2019-05-26T07:03:00.694Z,22.14
2019-05-26T07:05:32.001Z,21.86
2019-05-26T07:08:03.288Z,22.05
2019-05-26T07:10:34.544Z,22.19
2019-05-26T07:13:05.948Z,22.22
2019-05-26T07:15:37.209Z,22.55
2019-05-26T07:18:08.488Z,22.15
2019-05-26T07:20:40.257Z,22.58
2019-05-26T07:23:11.604Z,22.79
2019-05-26T07:25:42.726Z,23.05
2019-05-26T07:28:14.041Z,23.65
2019-05-26T07:30:45.272Z,24.29
2019-05-26T07:33:17.072Z,24.33
2019-05-26T07:35:49.922Z,24.20
2019-05-26T07:38:21.544Z,24.91
2019-05-26T07:40:52.841Z,25.46
2019-05-26T07:43:27.845Z,25.58
2019-05-26T07:45:57.111Z,25.02
2019-05-26T07:48:28.454Z,25.25
2019-05-26T07:50:59.688Z,23.79
2019-05-26T07:53:31.159Z,23.39
2019-05-26T07:56:02.411Z,22.44
2019-05-26T07:58:33.687Z,22.21
2019-05-26T08:01:05.479Z,22.04
2019-05-26T08:03:36.896Z,21.62
2019-05-26T08:06:08.232Z,21.77
2019-05-26T08:08:39.496Z,21.86
2019-05-26T08:11:10.857Z,21.25
2019-05-26T08:13:42.229Z,21.49
2019-05-26T08:16:13.600Z,22.01
2019-05-26T08:18:44.905Z,22.18
2019-05-26T08:21:16.255Z,22.31
2019-05-26T08:23:50.588Z,22.00
2019-05-26T08:26:28.688Z,21.70
2019-05-26T08:28:59.974Z,21.01
2019-05-26T08:31:31.433Z,21.09
2019-05-26T08:34:02.707Z,20.94
2019-05-26T08:36:51.371Z,20.87
2019-05-26T08:39:42.524Z,20.92
2019-05-26T08:42:26.358Z,21.17
2019-05-26T08:44:46.841Z,21.17
2019-05-26T08:47:18.136Z,21.35
2019-05-26T08:49:49.381Z,21.51
2019-05-26T08:52:22.425Z,21.44
2019-05-26T08:55:00.815Z,21.65
2019-05-26T08:57:40.284Z,21.65
2019-05-26T09:00:21.221Z,21.69
2019-05-26T09:03:03.227Z,21.27
2019-05-26T09:05:34.686Z,20.68
2019-05-26T09:08:08.092Z,20.63
2019-05-26T09:10:40.404Z,20.55
2019-05-26T09:13:11.637Z,20.27
2019-05-26T09:15:43.864Z,20.25
2019-05-26T09:18:15.051Z,20.12
2019-05-26T09:20:46.247Z,20.20
2019-05-26T09:23:17.546Z,20.24
2019-05-26T09:25:48.844Z,20.16
2019-05-26T09:28:20.234Z,19.88
2019-05-26T09:30:51.656Z,19.92
2019-05-26T09:33:23.100Z,20.24
2019-05-26T09:35:54.374Z,20.13
2019-05-26T09:38:25.634Z,20.37
2019-05-26T09:40:56.870Z,20.39
2019-05-26T09:43:28.112Z,20.54
2019-05-26T09:45:59.416Z,20.65
2019-05-26T09:48:30.682Z,20.81
2019-05-26T09:51:02.020Z,21.09
2019-05-26T09:53:33.258Z,21.41
2019-05-26T09:56:04.598Z,21.38
2019-05-26T09:58:35.847Z,21.44
2019-05-26T10:01:07.328Z,21.53
2019-05-26T10:03:38.657Z,21.56
2019-05-26T10:06:09.916Z,21.85
2019-05-26T10:08:41.220Z,22.21
2019-05-26T10:11:12.557Z,22.22
2019-05-26T10:13:43.827Z,22.37
2019-05-26T10:16:15.089Z,22.34
2019-05-26T10:18:52.222Z,22.51
2019-05-26T10:21:23.421Z,22.77
2019-05-26T10:23:54.769Z,23.37
2019-05-26T10:26:25.935Z,22.94
2019-05-26T10:29:00.426Z,23.20
2019-05-26T10:31:30.177Z,23.72
2019-05-26T10:34:01.449Z,24.10
2019-05-26T10:36:32.789Z,24.13
2019-05-26T10:39:04.315Z,24.26
2019-05-26T10:41:35.578Z,24.36
2019-05-26T10:44:06.953Z,24.08
2019-05-26T10:46:38.208Z,24.10
2019-05-26T10:49:09.469Z,24.15
2019-05-26T10:51:40.759Z,24.42
2019-05-26T10:54:12.009Z,24.59
2019-05-26T10:56:43.353Z,24.09
2019-05-26T10:59:14.552Z,23.90
2019-05-26T11:01:45.865Z,24.13
2019-05-26T11:04:17.128Z,24.62
2019-05-26T11:06:48.441Z,23.67
2019-05-26T11:09:19.737Z,23.88
2019-05-26T11:11:51.039Z,23.98
2019-05-26T11:14:22.299Z,24.12
2019-05-26T11:16:53.500Z,24.31
2019-05-26T11:19:24.721Z,24.04
2019-05-26T11:21:56.020Z,24.18
2019-05-26T11:24:27.301Z,24.34
2019-05-26T11:27:08.214Z,24.45
2019-05-26T11:29:31.739Z,24.24
2019-05-26T11:32:02.993Z,24.49
2019-05-26T11:34:34.189Z,24.73
2019-05-26T11:37:07.414Z,25.00
2019-05-26T11:39:38.738Z,24.73
2019-05-26T11:42:13.403Z,24.06
2019-05-26T11:44:42.955Z,24.18
2019-05-26T11:47:14.228Z,24.62
2019-05-26T11:49:45.521Z,24.53
2019-05-26T11:52:20.077Z,24.06
2019-05-26T11:54:49.816Z,23.94
2019-05-26T11:57:21.104Z,24.22
2019-05-26T11:59:52.349Z,23.95
2019-05-26T12:02:23.639Z,24.36
2019-05-26T12:04:54.980Z,24.54
2019-05-26T12:07:26.603Z,24.46
2019-05-26T12:09:57.856Z,23.89
2019-05-26T12:12:29.100Z,23.93
2019-05-26T12:15:00.303Z,24.04
2019-05-26T12:17:31.638Z,24.39
2019-05-26T12:20:05.394Z,24.39
2019-05-26T12:22:35.790Z,24.51
2019-05-26T12:25:09.042Z,24.36
2019-05-26T12:27:40.365Z,23.97
2019-05-26T12:30:15.569Z,24.03
2019-05-26T12:32:47.043Z,24.21
2019-05-26T12:35:18.909Z,23.76
2019-05-26T12:37:50.172Z,23.51
2019-05-26T12:40:21.632Z,23.83
2019-05-26T12:42:52.852Z,23.89
2019-05-26T12:45:24.324Z,24.06
2019-05-26T12:47:55.622Z,24.07
2019-05-26T12:51:02.435Z,23.90
2019-05-26T12:56:47.085Z,24.26
2019-05-26T12:59:18.306Z,24.47
2019-05-26T13:01:49.622Z,24.68
2019-05-26T13:04:20.931Z,24.90
2019-05-26T13:06:52.194Z,24.74
2019-05-26T13:09:33.461Z,24.80
2019-05-26T13:12:04.728Z,25.02
2019-05-26T13:14:35.988Z,24.73
2019-05-26T13:17:07.508Z,25.35
2019-05-26T13:19:38.717Z,25.72
2019-05-26T13:22:10.024Z,25.65
2019-05-26T13:24:43.545Z,25.39
2019-05-26T13:27:14.854Z,25.00
2019-05-26T13:29:46.049Z,24.45
2019-05-26T13:32:17.287Z,24.44
2019-05-26T13:34:48.568Z,24.27
2019-05-26T13:37:19.899Z,24.35
2019-05-26T13:39:51.195Z,24.24
2019-05-26T13:42:22.428Z,24.45
2019-05-26T13:44:53.640Z,24.80
2019-05-26T13:47:26.545Z,24.91
2019-05-26T13:49:58.158Z,24.64
2019-05-26T13:52:29.311Z,24.02
2019-05-26T13:55:00.496Z,23.53
2019-05-26T13:57:31.778Z,23.07
2019-05-26T14:00:03.183Z,23.14
2019-05-26T14:02:34.397Z,22.94
2019-05-26T14:05:08.964Z,23.04
2019-05-26T14:07:40.186Z,23.05
2019-05-26T14:10:12.148Z,22.82
2019-05-26T14:12:43.325Z,22.61
2019-05-26T14:15:14.784Z,22.23
2019-05-26T14:17:46.868Z,22.49
2019-05-26T14:20:22.498Z,22.56
2019-05-26T14:22:53.720Z,22.55
2019-05-26T14:25:24.948Z,22.63
2019-05-26T14:27:56.262Z,22.97
2019-05-26T14:30:27.552Z,23.08
2019-05-26T14:32:58.854Z,23.37
2019-05-26T14:35:30.096Z,23.72
2019-05-26T14:38:01.361Z,23.25
2019-05-26T14:40:32.805Z,23.38
2019-05-26T14:43:04.109Z,23.21
2019-05-26T14:45:35.333Z,23.16
2019-05-26T14:48:07.816Z,23.11
2019-05-26T14:50:40.899Z,23.49
2019-05-26T14:53:12.090Z,23.52
2019-05-26T14:55:43.267Z,23.78
2019-05-26T14:58:16.476Z,23.89
2019-05-26T15:00:47.384Z,23.72
2019-05-26T15:03:18.517Z,23.05
2019-05-26T15:06:03.190Z,22.51
2019-05-26T15:08:22.466Z,22.19
2019-05-26T15:10:53.722Z,22.11
2019-05-26T15:13:25.048Z,22.13
2019-05-26T15:16:09.277Z,22.35
2019-05-26T15:18:29.107Z,22.31
2019-05-26T15:21:00.604Z,22.51
2019-05-26T15:23:31.921Z,22.64
2019-05-26T15:26:05.273Z,22.46
2019-05-26T15:28:36.167Z,22.52
2019-05-26T15:31:10.095Z,22.49
2019-05-26T15:33:40.226Z,22.38
2019-05-26T15:36:11.467Z,22.21
2019-05-26T15:38:43.516Z,22.41
2019-05-26T15:41:14.869Z,22.22
2019-05-26T15:43:46.152Z,22.11
2019-05-26T15:46:25.165Z,21.93
2019-05-26T15:48:50.449Z,21.90
2019-05-26T15:51:21.734Z,21.83
2019-05-26T15:53:53.035Z,21.72
2019-05-26T15:56:24.220Z,21.63
2019-05-26T15:58:55.586Z,21.74
2019-05-26T16:01:26.993Z,21.81
2019-05-26T16:03:58.322Z,21.83
2019-05-26T16:06:29.586Z,22.12
2019-05-26T16:09:01.750Z,22.52
2019-05-26T16:11:33.018Z,22.58
2019-05-26T16:14:04.345Z,22.64
2019-05-26T16:16:41.133Z,22.74
2019-05-26T16:19:08.611Z,22.52
2019-05-26T16:21:39.821Z,22.07
2019-05-26T16:24:11.203Z,21.83
2019-05-26T16:26:42.474Z,21.76
2019-05-26T16:29:13.664Z,21.76
2019-05-26T16:31:44.871Z,21.83
2019-05-26T16:34:16.226Z,21.90
2019-05-26T16:36:47.468Z,22.00
2019-05-26T16:39:18.699Z,22.16
2019-05-26T16:41:49.931Z,22.31
2019-05-26T16:44:21.248Z,22.38
2019-05-26T16:46:56.410Z,22.50
2019-05-26T16:49:26.079Z,22.83
2019-05-26T16:51:57.446Z,22.83
2019-05-26T16:54:28.755Z,23.01
2019-05-26T16:57:00.134Z,23.11
2019-05-26T16:59:31.474Z,23.17
2019-05-26T17:02:02.773Z,22.63
2019-05-26T17:04:34.131Z,22.68
2019-05-26T17:07:05.464Z,22.69
2019-05-26T17:09:36.816Z,22.55
2019-05-26T17:12:08.083Z,22.59
2019-05-26T17:14:39.486Z,22.38
2019-05-26T17:17:15.015Z,22.47
2019-05-26T17:19:43.725Z,22.51
2019-05-26T17:22:15.044Z,22.59
2019-05-26T17:24:46.315Z,22.72
2019-05-26T17:27:17.823Z,22.45
2019-05-26T17:29:49.121Z,22.30
2019-05-26T17:32:20.371Z,21.83
2019-05-26T17:34:51.858Z,21.69
2019-05-26T17:37:23.380Z,21.66
2019-05-26T17:39:55.092Z,21.52
2019-05-26T17:42:26.319Z,21.47
2019-05-26T17:44:57.674Z,21.46
2019-05-26T17:47:30.742Z,21.57
2019-05-26T17:50:02.001Z,21.67
2019-05-26T17:52:33.326Z,21.60
2019-05-26T17:55:04.806Z,21.67
2019-05-26T17:57:37.230Z,21.67
2019-05-26T18:00:10.030Z,21.83
2019-05-26T18:02:41.320Z,21.91
2019-05-26T18:05:12.904Z,21.89
2019-05-26T18:07:44.225Z,22.02
2019-05-26T18:10:16.473Z,21.85
2019-05-26T18:12:47.749Z,21.51
2019-05-26T18:15:23.118Z,21.33
2019-05-26T18:17:54.334Z,21.18
2019-05-26T18:20:25.858Z,21.02
2019-05-26T18:22:57.244Z,20.91
2019-05-26T18:25:28.921Z,20.76
2019-05-26T18:28:01.542Z,20.66
2019-05-26T18:30:32.879Z,20.57
2019-05-26T18:33:06.923Z,20.42
2019-05-26T18:35:39.223Z,20.29
2019-05-26T18:38:11.094Z,20.24
2019-05-26T18:40:43.236Z,20.18
2019-05-26T18:43:14.676Z,20.03
2019-05-26T18:45:45.989Z,20.00
2019-05-26T18:48:17.295Z,20.03
2019-05-26T18:50:48.582Z,20.05
2019-05-26T18:53:19.941Z,20.03
2019-05-26T18:55:51.410Z,20.04
2019-05-26T18:58:22.761Z,20.02
2019-05-26T19:00:54.023Z,20.03
2019-05-26T19:03:26.074Z,19.99
2019-05-26T19:05:57.574Z,19.99
2019-05-26T19:08:29.080Z,19.99
2019-05-26T19:11:00.670Z,19.94
2019-05-26T19:13:32.046Z,19.93
2019-05-26T19:16:03.457Z,19.89
2019-05-26T19:18:34.793Z,19.97
2019-05-26T19:21:06.297Z,19.88
2019-05-26T19:23:37.607Z,19.96
2019-05-26T19:26:09.214Z,19.91
2019-05-26T19:28:40.666Z,19.87
2019-05-26T19:31:12.056Z,19.68
2019-05-26T19:33:43.463Z,19.50
2019-05-26T19:36:17.278Z,19.49
2019-05-26T19:38:48.528Z,19.44
2019-05-26T19:41:20.359Z,19.42
2019-05-26T19:43:51.822Z,19.32
2019-05-26T19:46:23.290Z,19.32
2019-05-26T19:48:54.710Z,19.27
2019-05-26T19:51:26.055Z,19.10
2019-05-26T19:53:57.356Z,19.04
2019-05-26T19:56:28.722Z,18.98
2019-05-26T19:59:00.088Z,18.79
2019-05-26T20:01:31.366Z,18.70
2019-05-26T20:04:02.856Z,18.70
2019-05-26T20:06:34.296Z,18.58
2019-05-26T20:09:07.766Z,18.60
2019-05-26T20:11:39.198Z,18.64
2019-05-26T20:14:10.535Z,18.62
2019-05-26T20:16:41.796Z,18.57
2019-05-26T20:19:13.145Z,18.54
2019-05-26T20:21:45.049Z,18.61
2019-05-26T20:24:16.564Z,18.53
2019-05-26T20:26:48.752Z,18.54
2019-05-26T20:29:19.987Z,18.55
2019-05-26T20:31:51.323Z,18.55
2019-05-26T20:34:22.766Z,18.54
2019-05-26T20:36:54.193Z,18.51
2019-05-26T20:39:25.636Z,18.50
2019-05-26T20:41:56.896Z,18.39
2019-05-26T20:44:29.976Z,18.38
2019-05-26T20:47:01.216Z,18.43
2019-05-26T20:49:44.839Z,18.48
2019-05-26T20:52:05.788Z,18.55
2019-05-26T20:54:40.021Z,18.45
2019-05-26T20:57:12.670Z,18.46
2019-05-26T20:59:45.493Z,18.41
2019-05-26T21:02:17.016Z,18.35
2019-05-26T21:04:48.421Z,18.36
2019-05-26T21:07:19.721Z,18.34
2019-05-26T21:09:50.965Z,18.10
2019-05-26T21:12:22.227Z,18.08
2019-05-26T21:14:53.529Z,18.11
2019-05-26T21:17:24.823Z,17.97
2019-05-26T21:19:56.429Z,17.95
2019-05-26T21:22:27.669Z,17.82
2019-05-26T21:24:58.971Z,17.89
2019-05-26T21:27:30.264Z,17.77
2019-05-26T21:30:01.478Z,17.70
2019-05-26T21:32:32.665Z,17.59
2019-05-26T21:35:03.990Z,17.62
2019-05-26T21:37:35.319Z,17.63
2019-05-26T21:40:08.388Z,17.57
2019-05-26T21:42:39.639Z,17.62
2019-05-26T21:45:11.481Z,17.65
2019-05-26T21:47:42.763Z,17.67
2019-05-26T21:50:15.605Z,17.63
2019-05-26T21:52:46.848Z,17.65
2019-05-26T21:55:18.423Z,17.65
2019-05-26T21:57:49.639Z,17.69
2019-05-26T22:00:25.234Z,17.68
2019-05-26T22:02:56.858Z,17.69
2019-05-26T22:05:28.140Z,17.66
2019-05-26T22:07:59.338Z,17.70
2019-05-26T22:10:30.560Z,17.63
2019-05-26T22:13:01.799Z,17.66
2019-05-26T22:15:33.079Z,17.65
2019-05-26T22:18:04.410Z,17.69
2019-05-26T22:20:35.572Z,17.64
2019-05-26T22:23:06.938Z,17.59
2019-05-26T22:25:38.200Z,17.55
2019-05-26T22:28:09.411Z,17.46
2019-05-26T22:30:40.651Z,17.45
2019-05-26T22:33:11.934Z,17.39
2019-05-26T22:35:43.177Z,17.36
2019-05-26T22:38:14.404Z,17.32
2019-05-26T22:40:46.655Z,17.29
2019-05-26T22:43:17.927Z,17.27
2019-05-26T22:45:49.155Z,17.21
2019-05-26T22:48:20.371Z,17.13
2019-05-26T22:50:51.647Z,17.10
2019-05-26T22:53:22.914Z,17.13
2019-05-26T22:55:54.092Z,17.03
2019-05-26T22:58:25.380Z,17.04
2019-05-26T23:00:56.625Z,17.01
2019-05-26T23:03:27.979Z,16.96
2019-05-26T23:05:59.251Z,17.01
2019-05-26T23:08:30.474Z,16.93
2019-05-26T23:11:01.720Z,16.97
2019-05-26T23:13:32.968Z,16.87
2019-05-26T23:16:04.280Z,16.83
2019-05-26T23:18:35.485Z,16.90
2019-05-26T23:21:06.742Z,16.95
2019-05-26T23:23:37.901Z,16.93
2019-05-26T23:26:09.248Z,16.93
2019-05-26T23:28:40.494Z,16.95
2019-05-26T23:31:11.850Z,16.93
2019-05-26T23:33:43.074Z,16.93
2019-05-26T23:36:14.227Z,16.89
2019-05-26T23:38:45.485Z,16.93
2019-05-26T23:41:16.747Z,16.86
2019-05-26T23:43:48.048Z,16.84
2019-05-26T23:46:19.274Z,16.87
2019-05-26T23:48:50.531Z,16.83
2019-05-26T23:51:21.759Z,16.75
2019-05-26T23:53:53.042Z,16.74
2019-05-26T23:56:24.291Z,16.70
2019-05-26T23:58:55.544Z,16.81
